Time;durP1;ratioP1;P1;durP2;ratioP2;P2;SDS_P1;SDS_P2;PMS_P1;PMS_P2;Temp;Humidity;BMP_temperature;BMP_pressure;BME280_temperature;BME280_humidity;BME280_pressure;Samples;Min_cycle;Max_cycle;Signal;HPM_P1;HPM_P2
2021/12/02 00:01:37;;;;;;;7.80;1.70;;;2.90;99.90;;;;;;4987372;28;20054;-76
2021/12/02 00:04:05;;;;;;;16.80;1.48;;;2.90;99.90;;;;;;4986069;28;20721;-76
2021/12/02 00:06:33;;;;;;;12.07;1.77;;;2.90;99.90;;;;;;4983722;28;20057;-78
2021/12/02 00:09:01;;;;;;;7.38;1.08;;;2.90;99.90;;;;;;4986000;28;20081;-75
2021/12/02 00:11:29;;;;;;;8.38;1.80;;;2.80;99.90;;;;;;4986180;28;20054;-74
2021/12/02 00:14:00;;;;;;;10.85;1.55;;;2.90;99.90;;;;;;4984652;28;20046;-77
2021/12/02 00:16:40;;;;;;;7.43;1.52;;;2.90;99.90;;;;;;4969930;28;20516;-76
2021/12/02 00:22:01;;;;;;;5.80;1.10;;;2.80;99.90;;;;;;4986483;28;20065;-75
2021/12/02 00:24:37;;;;;;;9.52;1.38;;;2.80;99.90;;;;;;4985325;28;20042;-74
2021/12/02 00:27:07;;;;;;;10.85;1.58;;;2.80;99.90;;;;;;4968781;28;20058;-74
2021/12/02 00:29:38;;;;;;;9.20;1.80;;;2.80;99.90;;;;;;4983701;28;20570;-74
2021/12/02 00:32:09;;;;;;;9.45;1.30;;;2.90;99.90;;;;;;4985803;28;20039;-75
2021/12/02 00:34:43;;;;;;;11.55;1.45;;;2.80;99.90;;;;;;4985308;28;20049;-74
2021/12/02 00:37:11;;;;;;;10.40;1.65;;;2.80;99.90;;;;;;4984055;28;20052;-75
2021/12/02 00:39:40;;;;;;;9.35;1.50;;;2.80;99.90;;;;;;4977412;28;20039;-74
2021/12/02 00:42:09;;;;;;;10.00;1.30;;;2.70;99.90;;;;;;4982065;28;20750;-75
2021/12/02 00:44:37;;;;;;;12.93;1.48;;;2.70;99.90;;;;;;4986104;28;20049;-74
2021/12/02 00:47:08;;;;;;;13.13;1.63;;;2.70;99.90;;;;;;4985007;28;20054;-75
2021/12/02 00:49:36;;;;;;;9.05;1.75;;;2.70;99.90;;;;;;4986085;28;20406;-76
2021/12/02 00:52:05;;;;;;;11.05;1.50;;;2.60;99.90;;;;;;4986280;28;20050;-74
2021/12/02 00:54:38;;;;;;;11.25;1.65;;;2.60;99.90;;;;;;4981906;28;20038;-75
2021/12/02 00:57:10;;;;;;;12.43;1.40;;;2.60;99.90;;;;;;4986165;28;20063;-75
2021/12/02 00:59:42;;;;;;;13.52;1.33;;;2.60;99.90;;;;;;4974829;28;20055;-75
2021/12/02 01:02:10;;;;;;;10.35;1.38;;;2.60;99.90;;;;;;4985835;28;20065;-75
2021/12/02 01:04:38;;;;;;;8.95;1.60;;;2.60;99.90;;;;;;4986448;28;20395;-75
2021/12/02 01:07:06;;;;;;;11.43;1.40;;;2.60;99.90;;;;;;5017537;28;20030;-75
2021/12/02 01:09:34;;;;;;;9.20;1.20;;;2.60;99.90;;;;;;4978016;28;20840;-75
2021/12/02 01:12:02;;;;;;;;;;;2.60;99.90;;;;;;4970097;28;20054;-76
2021/12/02 01:14:30;;;;;;;10.38;1.58;;;2.50;99.90;;;;;;5005444;28;19936;-76
2021/12/02 01:16:58;;;;;;;8.02;1.35;;;2.50;99.90;;;;;;5000252;28;20061;-76
2021/12/02 01:19:26;;;;;;;7.38;1.50;;;2.50;99.90;;;;;;5001018;28;20058;-75
2021/12/02 01:21:54;;;;;;;;;;;2.40;99.90;;;;;;5000734;28;20054;-75
2021/12/02 01:24:25;;;;;;;14.25;1.42;;;2.40;99.90;;;;;;5015735;28;19929;-75
2021/12/02 01:26:54;;;;;;;7.90;1.17;;;2.40;99.90;;;;;;4986109;28;20493;-74
2021/12/02 01:29:24;;;;;;;11.57;1.40;;;2.40;99.90;;;;;;4996379;28;20058;-74
2021/12/02 01:31:54;;;;;;;8.02;1.35;;;2.30;99.90;;;;;;4979435;28;20039;-75
2021/12/02 01:34:25;;;;;;;9.07;1.50;;;2.30;99.90;;;;;;4985787;28;20051;-75
2021/12/02 01:36:54;;;;;;;16.25;1.50;;;2.30;99.90;;;;;;4985720;28;20065;-75
2021/12/02 01:39:23;;;;;;;7.80;1.08;;;2.30;99.90;;;;;;4985872;28;20521;-75
2021/12/02 01:41:56;;;;;;;11.38;1.58;;;2.30;99.90;;;;;;5000484;28;20061;-75
2021/12/02 01:44:27;;;;;;;10.25;1.55;;;2.30;99.90;;;;;;4982798;28;20046;-74
2021/12/02 01:46:58;;;;;;;10.95;1.50;;;2.30;99.90;;;;;;4984952;28;20050;-75
2021/12/02 01:49:30;;;;;;;11.23;1.05;;;2.20;99.90;;;;;;4967159;28;20047;-74
2021/12/02 01:52:01;;;;;;;9.25;1.45;;;2.20;99.90;;;;;;4985521;28;20046;-75
2021/12/02 01:54:28;;;;;;;12.20;1.40;;;2.20;99.90;;;;;;5000758;28;20046;-75
2021/12/02 01:57:05;;;;;;;;;;;2.20;99.90;;;;;;5017552;28;20495;-75
2021/12/02 01:59:37;;;;;;;12.95;1.60;;;2.20;99.90;;;;;;4974967;28;20453;-75
2021/12/02 02:02:09;;;;;;;10.93;1.58;;;2.20;99.90;;;;;;4964163;28;20514;-74
2021/12/02 02:04:38;;;;;;;8.45;1.20;;;2.20;99.90;;;;;;4979975;28;20047;-75
2021/12/02 02:07:17;;;;;;;11.18;1.52;;;2.20;99.90;;;;;;4968582;28;20050;-75
2021/12/02 02:09:45;;;;;;;12.15;1.10;;;2.20;99.90;;;;;;4984385;28;20050;-75
2021/12/02 02:12:13;;;;;;;7.53;1.35;;;2.10;99.90;;;;;;4985653;28;20050;-75
2021/12/02 02:14:43;;;;;;;8.52;1.30;;;2.10;99.90;;;;;;4985988;28;20126;-76
2021/12/02 02:17:39;;;;;;;8.65;1.30;;;2.10;99.90;;;;;;4998767;28;20065;-75
2021/12/02 02:20:00;;;;;;;10.98;1.70;;;2.10;99.90;;;;;;5000095;28;20048;-77
2021/12/02 02:22:28;;;;;;;6.25;1.30;;;2.10;99.90;;;;;;5000025;28;20046;-76
2021/12/02 02:24:56;;;;;;;7.20;1.45;;;2.00;99.90;;;;;;4985610;28;20461;-76
2021/12/02 02:27:24;;;;;;;13.98;1.75;;;2.00;99.90;;;;;;4985327;28;20042;-76
2021/12/02 02:29:51;;;;;;;10.40;1.20;;;2.00;99.90;;;;;;4983922;28;20035;-76
2021/12/02 02:32:27;;;;;;;11.23;1.55;;;2.00;99.90;;;;;;4983658;28;20059;-75
2021/12/02 02:34:55;;;;;;;9.02;1.45;;;1.90;99.90;;;;;;5019823;28;20451;-75
2021/12/02 02:37:22;;;;;;;6.07;1.40;;;1.90;99.90;;;;;;4988464;28;20681;-75
2021/12/02 02:39:50;;;;;;;11.13;1.33;;;1.90;99.90;;;;;;4988991;28;20066;-75
2021/12/02 02:42:23;;;;;;;6.72;1.42;;;1.90;99.90;;;;;;4988943;28;20046;-76
2021/12/02 02:44:51;;;;;;;12.35;1.67;;;1.90;99.90;;;;;;4988913;28;20054;-74
2021/12/02 02:47:24;;;;;;;8.00;1.38;;;1.90;99.90;;;;;;4988908;28;20507;-75
2021/12/02 02:49:52;;;;;;;14.93;2.33;;;1.90;99.90;;;;;;5003686;28;20049;-75
2021/12/02 02:52:20;;;;;;;9.02;1.70;;;1.90;99.90;;;;;;4989321;28;20789;-75
2021/12/02 02:54:48;;;;;;;11.70;1.38;;;1.90;99.90;;;;;;4981302;28;20054;-75
2021/12/02 02:57:18;;;;;;;10.07;1.25;;;1.90;99.90;;;;;;5002111;28;20108;-74
2021/12/02 03:02:50;;;;;;;8.33;1.30;;;2.00;99.90;;;;;;4987439;28;20054;-74
2021/12/02 03:05:26;;;;;;;6.72;1.17;;;2.10;99.90;;;;;;4975324;28;20292;-74
2021/12/02 03:07:59;;;;;;;8.55;1.20;;;2.10;99.90;;;;;;5007366;28;20061;-75
2021/12/02 03:10:42;;;;;;;10.95;1.50;;;2.20;99.90;;;;;;4989126;28;20054;-76
2021/12/02 03:18:31;;;;;;;9.82;1.35;;;2.30;99.90;;;;;;4980923;28;20073;-74
2021/12/02 03:20:59;;;;;;;7.13;1.13;;;2.30;99.90;;;;;;4980115;28;20054;-76
2021/12/02 03:23:27;;;;;;;;;;;2.30;99.90;;;;;;4988457;28;20506;-74
2021/12/02 03:25:55;;;;;;;8.27;1.42;;;2.30;99.90;;;;;;4988287;28;20418;-77
2021/12/02 03:28:22;;;;;;;5.82;1.40;;;2.40;99.90;;;;;;4988836;28;20689;-74
2021/12/02 03:30:50;;;;;;;6.60;1.30;;;2.30;99.90;;;;;;4981471;28;20057;-75
2021/12/02 03:33:18;;;;;;;6.50;1.20;;;2.40;99.90;;;;;;4988284;28;20050;-74
2021/12/02 03:35:46;;;;;;;7.50;1.20;;;2.30;99.90;;;;;;4988152;28;20050;-76
2021/12/02 03:38:29;;;;;;;9.65;1.30;;;2.40;99.90;;;;;;5001372;28;20046;-76
2021/12/02 03:40:57;;;;;;;8.77;1.70;;;2.40;99.90;;;;;;5003212;28;20467;-73
2021/12/02 03:43:27;;;;;;;8.13;1.20;;;2.30;99.90;;;;;;4988292;28;20055;-73
2021/12/02 03:45:56;;;;;;;8.63;1.20;;;2.30;99.90;;;;;;5002522;28;20050;-76
2021/12/02 03:48:24;;;;;;;;;;;2.40;99.90;;;;;;4987348;28;20054;-78
2021/12/02 03:50:52;;;;;;;8.13;1.15;;;2.30;99.90;;;;;;5002729;28;19933;-77
2021/12/02 03:53:19;;;;;;;5.35;1.17;;;2.40;99.90;;;;;;5002877;28;20411;-75
2021/12/02 03:55:48;;;;;;;8.13;1.33;;;2.40;99.90;;;;;;5002058;28;20058;-75
2021/12/02 03:58:16;;;;;;;5.03;1.20;;;2.40;99.90;;;;;;4987994;28;20050;-74
2021/12/02 04:00:44;;;;;;;7.68;1.40;;;2.40;99.90;;;;;;4984386;28;20046;-76
2021/12/02 04:03:12;;;;;;;;;;;2.40;99.90;;;;;;4980829;28;20553;-75
2021/12/02 04:05:39;;;;;;;7.68;1.33;;;2.40;99.90;;;;;;4971530;28;19933;-74
2021/12/02 04:08:11;;;;;;;7.85;1.20;;;2.40;99.90;;;;;;5009316;28;20042;-75
2021/12/02 04:10:40;;;;;;;10.23;1.30;;;2.40;99.90;;;;;;4987476;28;20038;-74
2021/12/02 04:13:19;;;;;;;11.27;1.10;;;2.40;99.90;;;;;;4987783;28;20434;-75
2021/12/02 04:15:54;;;;;;;7.43;1.25;;;2.40;99.90;;;;;;4987087;28;20379;-75
2021/12/02 04:18:22;;;;;;;5.50;1.02;;;2.40;99.90;;;;;;4986072;28;20164;-75
2021/12/02 04:20:50;;;;;;;;;;;2.40;99.90;;;;;;4985711;28;20053;-75
2021/12/02 04:23:18;;;;;;;7.07;1.10;;;2.40;99.90;;;;;;4987244;28;20425;-75
2021/12/02 04:25:46;;;;;;;9.32;1.10;;;2.40;99.90;;;;;;4987665;28;20047;-75
2021/12/02 04:28:14;;;;;;;5.95;1.20;;;2.40;99.90;;;;;;4985469;28;20080;-75
2021/12/02 04:30:42;;;;;;;4.65;1.10;;;2.40;99.90;;;;;;4983798;28;20042;-75
2021/12/02 04:33:09;;;;;;;8.82;1.23;;;2.40;99.90;;;;;;4987373;28;20061;-75
2021/12/02 04:35:37;;;;;;;9.60;1.38;;;2.40;99.90;;;;;;5001955;28;20047;-75
2021/12/02 04:38:05;;;;;;;6.88;1.45;;;2.40;99.90;;;;;;5001801;28;20049;-75
2021/12/02 04:40:36;;;;;;;6.20;0.90;;;2.40;99.90;;;;;;4987197;28;20077;-75
2021/12/02 04:43:03;;;;;;;5.28;1.23;;;2.40;99.90;;;;;;5002093;28;20399;-76
2021/12/02 04:45:31;;;;;;;5.63;1.17;;;2.50;99.90;;;;;;4987124;28;20046;-75
2021/12/02 04:47:59;;;;;;;7.05;0.82;;;2.40;99.90;;;;;;5001976;28;20475;-74
2021/12/02 04:50:27;;;;;;;5.60;1.00;;;2.40;99.90;;;;;;5002168;28;20042;-75
2021/12/02 04:52:55;;;;;;;5.63;1.00;;;2.40;99.90;;;;;;4987103;28;20074;-74
2021/12/02 04:55:22;;;;;;;6.18;1.10;;;2.40;99.90;;;;;;4949884;28;20058;-75
2021/12/02 04:57:50;;;;;;;10.63;1.40;;;2.40;99.90;;;;;;4985029;28;20046;-74
2021/12/02 05:00:18;;;;;;;4.40;0.80;;;2.40;99.90;;;;;;4984601;28;20415;-75
2021/12/02 05:02:46;;;;;;;6.88;1.17;;;2.50;99.90;;;;;;4984349;28;20407;-75
2021/12/02 05:05:14;;;;;;;;;;;2.40;99.90;;;;;;5006064;28;20399;-75
2021/12/02 05:07:41;;;;;;;6.82;0.98;;;2.40;99.90;;;;;;4986592;28;19922;-75
2021/12/02 05:10:09;;;;;;;5.32;1.20;;;2.40;99.90;;;;;;4981015;28;20407;-75
2021/12/02 05:12:37;;;;;;;7.70;1.10;;;2.40;99.90;;;;;;4993407;28;20043;-75
2021/12/02 05:15:05;;;;;;;8.68;0.90;;;2.40;99.90;;;;;;5001756;28;20050;-75
2021/12/02 05:17:33;;;;;;;9.57;1.33;;;2.40;99.90;;;;;;4985266;28;20061;-75
2021/12/02 05:20:00;;;;;;;4.65;1.02;;;2.40;99.90;;;;;;4985916;28;20050;-74
2021/12/02 05:22:28;;;;;;;8.98;1.02;;;2.40;99.90;;;;;;5001252;28;20266;-74
2021/12/02 05:24:56;;;;;;;6.00;1.30;;;2.40;99.90;;;;;;5017718;28;20050;-74
2021/12/02 05:27:24;;;;;;;8.38;0.93;;;2.40;99.90;;;;;;4986236;28;20057;-74
2021/12/02 05:29:51;;;;;;;7.03;1.30;;;2.40;99.90;;;;;;5001395;28;20038;-75
2021/12/02 05:32:20;;;;;;;5.90;1.27;;;2.40;99.90;;;;;;4972500;28;20062;-75
2021/12/02 05:34:49;;;;;;;5.38;0.90;;;2.40;99.90;;;;;;5017156;28;20482;-75
2021/12/02 05:37:21;;;;;;;6.30;0.95;;;2.50;99.90;;;;;;4986248;28;20055;-75
2021/12/02 05:39:49;;;;;;;6.95;1.08;;;2.40;99.90;;;;;;5001443;28;20038;-75
2021/12/02 05:42:16;;;;;;;7.75;1.35;;;2.40;99.90;;;;;;4985639;28;20403;-75
2021/12/02 05:44:45;;;;;;;9.57;0.98;;;2.40;99.90;;;;;;4986263;28;20046;-75
2021/12/02 05:47:14;;;;;;;8.40;0.93;;;2.50;99.90;;;;;;4986129;28;20057;-74
2021/12/02 05:49:41;;;;;;;;;;;2.50;99.90;;;;;;5017156;28;20050;-74
2021/12/02 05:52:14;;;;;;;4.18;0.73;;;2.50;99.90;;;;;;4999950;28;19937;-74
2021/12/02 05:54:42;;;;;;;8.80;1.13;;;2.50;99.90;;;;;;5000549;28;20054;-74
2021/12/02 05:57:09;;;;;;;6.25;0.65;;;2.50;99.90;;;;;;4984446;28;20046;-74
2021/12/02 05:59:37;;;;;;;4.95;0.90;;;2.50;99.90;;;;;;5001062;28;20061;-76
2021/12/02 06:02:07;;;;;;;6.47;1.08;;;2.60;99.90;;;;;;5003582;28;20916;-74
2021/12/02 06:04:39;;;;;;;6.45;0.98;;;2.60;99.90;;;;;;4991367;28;20038;-74
2021/12/02 06:07:07;;;;;;;8.43;0.98;;;2.70;99.90;;;;;;4985645;28;20479;-74
2021/12/02 06:09:34;;;;;;;7.85;1.25;;;2.70;99.90;;;;;;5003688;28;20058;-74
2021/12/02 06:12:02;;;;;;;3.95;0.98;;;2.70;99.90;;;;;;4990323;28;20050;-75
2021/12/02 06:14:30;;;;;;;8.30;0.90;;;2.80;99.90;;;;;;4988146;28;20069;-75
2021/12/02 06:16:58;;;;;;;4.45;0.80;;;2.80;99.90;;;;;;4987974;28;20051;-75
2021/12/02 06:19:25;;;;;;;5.57;0.88;;;2.90;99.90;;;;;;4989392;28;20065;-74
2021/12/02 06:21:55;;;;;;;5.10;0.70;;;2.90;99.90;;;;;;4989063;28;20046;-75
2021/12/02 06:24:42;;;;;;;4.28;0.70;;;2.90;99.90;;;;;;4986487;28;20483;-74
2021/12/02 06:27:11;;;;;;;2.28;0.40;;;2.90;99.90;;;;;;5020096;28;20057;-75
2021/12/02 06:29:39;;;;;;;5.88;0.70;;;2.90;99.90;;;;;;4988039;28;20055;-75
2021/12/02 06:32:08;;;;;;;4.97;0.70;;;2.80;99.90;;;;;;4988828;28;20042;-75
2021/12/02 06:34:36;;;;;;;8.75;0.85;;;2.80;99.90;;;;;;4979861;28;20474;-74
2021/12/02 06:37:04;;;;;;;5.40;0.68;;;2.80;99.90;;;;;;4989087;28;20046;-75
2021/12/02 06:39:32;;;;;;;3.72;0.70;;;2.70;99.90;;;;;;4983442;28;20046;-75
2021/12/02 06:41:59;;;;;;;3.53;0.60;;;2.70;99.90;;;;;;4988025;28;20050;-75
2021/12/02 06:44:28;;;;;;;5.07;0.50;;;2.70;99.90;;;;;;4982315;28;20054;-74
2021/12/02 06:46:56;;;;;;;2.85;0.60;;;2.70;99.90;;;;;;4999812;28;20038;-72
2021/12/02 06:49:24;;;;;;;6.40;0.70;;;2.70;99.90;;;;;;4984327;28;20050;-74
2021/12/02 06:51:52;;;;;;;4.25;0.68;;;2.60;99.90;;;;;;4999222;28;20042;-74
2021/12/02 06:54:19;;;;;;;3.35;0.47;;;2.60;99.90;;;;;;4997972;28;20078;-74
2021/12/02 06:56:52;;;;;;;2.15;0.63;;;2.50;99.90;;;;;;4987476;28;20057;-76
2021/12/02 06:59:20;;;;;;;7.05;0.57;;;2.50;99.90;;;;;;4986148;28;20047;-76
2021/12/02 07:01:48;;;;;;;6.35;0.60;;;2.40;99.90;;;;;;4986130;28;20438;-76
2021/12/02 07:04:15;;;;;;;3.10;0.68;;;2.20;99.90;;;;;;4985280;28;20054;-75
2021/12/02 07:06:44;;;;;;;5.07;0.80;;;2.20;99.90;;;;;;4999492;28;20057;-74
2021/12/02 07:09:12;;;;;;;2.67;0.60;;;2.10;99.90;;;;;;4986235;28;20045;-74
2021/12/02 07:11:42;;;;;;;7.18;0.80;;;2.00;99.90;;;;;;4986186;28;20048;-75
2021/12/02 07:14:14;;;;;;;3.70;0.63;;;2.00;99.90;;;;;;4996744;28;20138;-75
2021/12/02 07:16:42;;;;;;;7.05;1.02;;;1.90;99.90;;;;;;4993070;28;20058;-75
2021/12/02 07:19:14;;;;;;;7.95;0.95;;;1.90;99.90;;;;;;4986964;28;20050;-74
2021/12/02 07:21:42;;;;;;;5.15;1.13;;;1.80;99.90;;;;;;4992912;28;20488;-76
2021/12/02 07:24:13;;;;;;;5.95;0.85;;;1.70;99.90;;;;;;4987173;28;20046;-75
2021/12/02 07:27:01;;;;;;;4.85;0.75;;;1.70;99.90;;;;;;4985793;28;20508;-74
2021/12/02 07:29:31;;;;;;;;;;;1.60;99.90;;;;;;4987210;28;20049;-74
2021/12/02 07:32:02;;;;;;;4.40;0.60;;;1.60;99.90;;;;;;4986813;28;19953;-74
2021/12/02 07:34:34;;;;;;;8.02;1.00;;;1.50;99.90;;;;;;4992029;28;20047;-76
2021/12/02 07:37:02;;;;;;;9.00;1.13;;;1.50;99.90;;;;;;4987177;28;20050;-77
2021/12/02 07:39:30;;;;;;;9.50;1.13;;;1.50;99.90;;;;;;4986589;28;20054;-76
2021/12/02 07:41:58;;;;;;;;;;;1.40;99.90;;;;;;4987926;28;20061;-76
2021/12/02 07:44:26;;;;;;;7.90;1.05;;;1.40;99.90;;;;;;4966830;28;19946;-75
2021/12/02 07:46:56;;;;;;;4.03;0.77;;;1.40;99.90;;;;;;4974995;28;20407;-76
2021/12/02 07:49:23;;;;;;;6.95;1.00;;;1.30;99.90;;;;;;4982157;28;20038;-76
2021/12/02 07:51:54;;;;;;;5.55;0.95;;;1.30;99.90;;;;;;4986689;28;20046;-75
2021/12/02 07:54:22;;;;;;;6.40;0.93;;;1.30;99.90;;;;;;4983187;28;20057;-75
2021/12/02 07:56:50;;;;;;;;;;;1.50;99.90;;;;;;5017503;28;20058;-75
2021/12/02 07:59:19;;;;;;;9.05;1.10;;;1.30;99.90;;;;;;5016073;28;20670;-75
2021/12/02 08:01:48;;;;;;;7.70;1.20;;;1.30;99.90;;;;;;4984763;28;20046;-77
2021/12/02 08:04:16;;;;;;;9.02;1.50;;;1.30;99.90;;;;;;4993173;28;20458;-76
2021/12/02 08:06:43;;;;;;;7.40;1.50;;;1.20;99.90;;;;;;4990644;28;20050;-74
2021/12/02 08:09:13;;;;;;;8.73;1.30;;;1.30;99.90;;;;;;4999206;28;20053;-77
2021/12/02 08:11:41;;;;;;;4.97;1.40;;;1.20;99.90;;;;;;4993184;28;20039;-76
2021/12/02 08:14:15;;;;;;;6.63;1.25;;;1.20;99.90;;;;;;4988501;28;20041;-76
2021/12/02 08:16:43;;;;;;;7.50;1.65;;;1.30;99.90;;;;;;4986413;28;20093;-82
2021/12/02 08:19:11;;;;;;;7.93;1.50;;;1.20;99.90;;;;;;4968397;28;20066;-77
2021/12/02 08:21:39;;;;;;;12.85;1.85;;;1.20;99.90;;;;;;4985241;28;20066;-78
2021/12/02 08:24:07;;;;;;;10.85;1.67;;;1.30;99.90;;;;;;4986287;28;20130;-77
2021/12/02 08:26:35;;;;;;;8.38;1.85;;;1.30;99.90;;;;;;4985410;28;20062;-77
2021/12/02 08:29:05;;;;;;;9.23;2.03;;;1.30;99.90;;;;;;4981597;28;20042;-76
2021/12/02 08:31:33;;;;;;;5.80;1.80;;;1.30;99.90;;;;;;4983133;28;20042;-76
2021/12/02 08:34:01;;;;;;;10.13;2.08;;;1.30;99.90;;;;;;4968956;28;20053;-78
2021/12/02 08:36:40;;;;;;;9.40;2.17;;;1.30;99.90;;;;;;4985016;28;20863;-77
2021/12/02 08:39:16;;;;;;;11.80;2.38;;;1.30;99.90;;;;;;5001554;28;20070;-77
2021/12/02 08:41:48;;;;;;;6.65;1.80;;;1.40;99.90;;;;;;5017940;28;20415;-77
2021/12/02 08:44:18;;;;;;;13.38;2.65;;;1.50;99.90;;;;;;4986261;28;20061;-76
2021/12/02 08:46:50;;;;;;;8.38;2.20;;;1.50;99.90;;;;;;4985036;28;20054;-77
2021/12/02 08:49:18;;;;;;;10.38;2.25;;;1.60;99.90;;;;;;4981722;28;20047;-76
2021/12/02 08:51:46;;;;;;;11.88;2.17;;;1.60;99.90;;;;;;4991104;28;20053;-76
2021/12/02 08:54:15;;;;;;;10.75;2.05;;;1.70;99.90;;;;;;4982731;28;20495;-76
2021/12/02 08:56:43;;;;;;;9.38;1.92;;;1.70;99.90;;;;;;4983356;28;20046;-76
2021/12/02 08:59:11;;;;;;;12.02;1.77;;;1.70;99.90;;;;;;4986226;28;20061;-76
2021/12/02 09:01:39;;;;;;;10.02;1.77;;;1.80;99.90;;;;;;4985115;28;20057;-76
2021/12/02 09:04:08;;;;;;;;;;;1.80;99.90;;;;;;4973519;28;20054;-77
2021/12/02 09:06:35;;;;;;;;;;;1.90;99.90;;;;;;4988637;28;20311;-76
2021/12/02 09:09:03;;;;;;;8.95;1.92;;;1.90;99.90;;;;;;4985445;28;19926;-76
2021/12/02 09:11:33;;;;;;;8.57;1.67;;;2.00;99.90;;;;;;4985432;28;20071;-76
2021/12/02 09:14:04;;;;;;;11.38;2.00;;;2.10;99.90;;;;;;4984151;28;20058;-76
2021/12/02 09:16:33;;;;;;;13.77;1.88;;;2.10;99.90;;;;;;4982365;28;20415;-76
2021/12/02 09:19:01;;;;;;;9.27;2.00;;;2.10;99.90;;;;;;4983793;28;20050;-76
2021/12/02 09:21:30;;;;;;;12.45;2.03;;;2.20;99.90;;;;;;4982580;28;20057;-77
2021/12/02 09:23:57;;;;;;;7.75;1.80;;;2.20;99.90;;;;;;4983562;28;20479;-76
2021/12/02 09:26:26;;;;;;;10.93;1.92;;;2.30;99.90;;;;;;4983507;28;20815;-76
2021/12/02 09:28:57;;;;;;;16.77;2.05;;;2.30;99.90;;;;;;4983955;28;20057;-76
2021/12/02 09:31:25;;;;;;;7.95;1.83;;;2.40;99.90;;;;;;4984023;28;20388;-77
2021/12/02 09:33:53;;;;;;;7.53;1.60;;;2.50;99.90;;;;;;4983349;28;20053;-76
2021/12/02 09:36:21;;;;;;;;;;;2.50;99.90;;;;;;4985296;28;20100;-77
2021/12/02 09:38:49;;;;;;;10.48;1.65;;;2.60;99.90;;;;;;5000362;28;19926;-76
2021/12/02 09:41:17;;;;;;;6.70;1.20;;;2.60;99.90;;;;;;4985535;28;20062;-77
2021/12/02 09:43:44;;;;;;;10.55;1.23;;;2.70;99.90;;;;;;4989192;28;20521;-75
2021/12/02 09:46:12;;;;;;;13.23;1.42;;;2.70;99.90;;;;;;4978432;28;20050;-77
2021/12/02 09:48:40;;;;;;;5.65;1.10;;;2.80;99.90;;;;;;4991646;28;20046;-77
2021/12/02 09:51:13;;;;;;;8.73;1.45;;;2.90;99.90;;;;;;4986765;28;20073;-76
2021/12/02 09:54:11;;;;;;;8.25;1.73;;;3.00;99.90;;;;;;4988783;28;20506;-77
2021/12/02 09:56:41;;;;;;;;;;;3.00;99.90;;;;;;4990528;28;20050;-77
2021/12/02 09:59:23;;;;;;;8.43;2.00;;;3.00;99.90;;;;;;4991858;28;19926;-76
2021/12/02 10:01:57;;;;;;;14.05;4.25;;;3.20;99.90;;;;;;4990256;28;20050;-76
2021/12/02 10:04:27;;;;;;;8.10;1.10;;;3.50;99.90;;;;;;4977114;28;20053;-76
2021/12/02 10:07:11;;;;;;;11.55;3.03;;;3.60;99.90;;;;;;4991619;28;20434;-77
2021/12/02 10:09:50;;;;;;;6.22;1.13;;;3.60;99.90;;;;;;4990513;28;20038;-77
2021/12/02 10:12:21;;;;;;;9.18;1.27;;;3.70;99.90;;;;;;4992437;28;20042;-76
2021/12/02 10:14:56;;;;;;;6.32;1.30;;;3.90;99.90;;;;;;4991748;28;20510;-77
2021/12/02 10:20:33;;;;;;;8.30;1.08;;;4.00;99.90;;;;;;4991942;28;20521;-77
2021/12/02 10:23:15;;;;;;;7.90;1.20;;;4.10;99.90;;;;;;5016547;28;20057;-76
2021/12/02 10:25:48;;;;;;;4.22;1.02;;;4.30;99.90;;;;;;4991462;28;20043;-77
2021/12/02 10:28:18;;;;;;;5.43;1.13;;;4.30;99.90;;;;;;4992022;28;20046;-77
2021/12/02 10:30:57;;;;;;;8.88;1.08;;;4.30;99.90;;;;;;4991510;28;20069;-76
2021/12/02 10:33:37;;;;;;;7.32;1.02;;;4.20;99.90;;;;;;4990447;28;20061;-77
2021/12/02 10:36:22;;;;;;;7.70;1.30;;;4.40;99.90;;;;;;4989636;28;20046;-76
2021/12/02 10:38:50;;;;;;;11.90;1.40;;;4.50;99.90;;;;;;4990073;28;20054;-77
2021/12/02 10:41:30;;;;;;;8.10;1.30;;;4.50;99.90;;;;;;4990138;28;20451;-76
2021/12/02 10:44:16;;;;;;;11.88;2.00;;;4.40;99.90;;;;;;4991365;28;20550;-77
2021/12/02 10:47:13;;;;;;;10.05;1.60;;;4.40;99.90;;;;;;4970784;28;20046;-76
2021/12/02 10:49:45;;;;;;;5.27;0.83;;;4.40;99.90;;;;;;4989195;28;20410;-76
2021/12/02 10:52:17;;;;;;;7.78;1.08;;;4.40;99.90;;;;;;4991184;28;20801;-76
2021/12/02 10:54:49;;;;;;;4.32;0.93;;;4.70;99.90;;;;;;4987268;28;20058;-75
2021/12/02 10:57:21;;;;;;;6.40;1.40;;;4.90;99.90;;;;;;4987097;28;20066;-77
2021/12/02 10:59:57;;;;;;;7.38;1.25;;;5.00;99.90;;;;;;4988114;28;20559;-77
2021/12/02 11:02:25;;;;;;;10.98;0.98;;;5.00;99.90;;;;;;4987166;28;20498;-77
2021/12/02 11:05:23;;;;;;;4.88;1.20;;;5.00;99.90;;;;;;5005584;28;20046;-76
2021/12/02 11:08:02;;;;;;;7.95;1.40;;;4.90;99.90;;;;;;4987406;28;20050;-78
2021/12/02 11:10:35;;;;;;;6.78;1.30;;;4.90;99.90;;;;;;4987614;28;20054;-77
2021/12/02 11:13:05;;;;;;;5.18;0.95;;;5.00;99.90;;;;;;4988114;28;20065;-78
2021/12/02 11:15:35;;;;;;;7.10;0.90;;;5.30;99.90;;;;;;4986822;28;20479;-78
2021/12/02 11:18:06;;;;;;;5.32;1.30;;;5.50;99.90;;;;;;4982147;28;20054;-78
2021/12/02 11:20:42;;;;;;;6.97;1.30;;;5.70;99.90;;;;;;4987266;28;20050;-77
2021/12/02 11:23:28;;;;;;;9.30;1.20;;;5.70;99.90;;;;;;4985228;28;20524;-76
2021/12/02 11:26:10;;;;;;;6.60;1.17;;;5.70;99.90;;;;;;4986597;28;20042;-75
2021/12/02 11:28:43;;;;;;;5.82;0.98;;;5.70;99.90;;;;;;4983328;28;20055;-77
2021/12/02 11:31:19;;;;;;;4.15;0.82;;;5.80;99.90;;;;;;4982684;28;20050;-77
2021/12/02 11:33:49;;;;;;;4.85;1.13;;;6.10;99.90;;;;;;4985730;28;20042;-77
2021/12/02 11:36:18;;;;;;;6.65;1.23;;;6.50;99.90;;;;;;4974778;28;20254;-77
2021/12/02 11:38:46;;;;;;;5.82;1.00;;;7.10;99.90;;;;;;5002861;28;20034;-77
2021/12/02 11:41:16;;;;;;;;;;;7.60;99.90;;;;;;4988044;28;20042;-78
2021/12/02 11:43:45;;;;;;;3.63;0.80;;;7.90;99.90;;;;;;4986141;28;19932;-77
2021/12/02 11:46:12;;;;;;;4.57;1.05;;;7.90;99.90;;;;;;4975310;28;20049;-77
2021/12/02 11:48:42;;;;;;;;;;;7.70;99.90;;;;;;4978811;28;20051;-77
2021/12/02 11:51:15;;;;;;;4.35;1.00;;;7.30;99.90;;;;;;4978813;28;19929;-77
2021/12/02 11:53:43;;;;;;;6.45;1.00;;;7.00;99.90;;;;;;4985914;28;20058;-77
2021/12/02 11:56:13;;;;;;;5.55;1.10;;;7.00;99.90;;;;;;4986291;28;20054;-76
2021/12/02 11:58:41;;;;;;;7.30;1.08;;;7.10;99.90;;;;;;4995390;28;20050;-77
2021/12/02 12:01:15;;;;;;;3.35;0.68;;;7.50;99.90;;;;;;4981117;28;20078;-77
2021/12/02 12:04:01;;;;;;;9.75;1.33;;;7.80;99.90;;;;;;4978852;28;20043;-77
2021/12/02 12:06:32;;;;;;;7.15;0.90;;;8.30;99.90;;;;;;5020131;28;20046;-77
2021/12/02 12:09:09;;;;;;;6.57;1.00;;;8.70;99.90;;;;;;4984841;28;20138;-77
2021/12/02 12:11:43;;;;;;;11.15;1.00;;;8.80;99.90;;;;;;4992982;28;20043;-77
2021/12/02 12:14:16;;;;;;;5.30;1.00;;;8.60;99.90;;;;;;4987951;28;20050;-76
2021/12/02 12:16:47;;;;;;;5.80;1.20;;;8.20;99.90;;;;;;4985211;28;20034;-76
2021/12/02 12:19:22;;;;;;;7.25;1.20;;;7.70;99.90;;;;;;4969091;28;20062;-77
2021/12/02 12:21:52;;;;;;;8.00;1.23;;;7.50;99.90;;;;;;4986660;28;20054;-77
2021/12/02 12:24:47;;;;;;;7.57;1.27;;;7.30;99.90;;;;;;4986732;28;20053;-76
2021/12/02 12:27:18;;;;;;;4.03;1.10;;;7.20;99.90;;;;;;4985217;28;20042;-76
2021/12/02 12:30:09;;;;;;;6.30;1.20;;;6.90;99.90;;;;;;5017353;28;20061;-76
2021/12/02 12:38:31;;;;;;;9.88;1.05;;;6.40;99.90;;;;;;4985838;28;20042;-76
2021/12/02 12:41:14;;;;;;;6.40;1.35;;;6.30;99.90;;;;;;4987976;28;20053;-77
2021/12/02 12:43:54;;;;;;;6.75;1.00;;;6.20;99.90;;;;;;4985912;28;20054;-76
2021/12/02 12:46:27;;;;;;;8.45;1.20;;;6.00;99.90;;;;;;4985552;28;20057;-75
2021/12/02 12:49:08;;;;;;;9.70;1.13;;;5.90;99.90;;;;;;4983063;28;20042;-75
2021/12/02 12:51:36;;;;;;;9.50;1.25;;;5.80;99.90;;;;;;4985968;28;20057;-77
2021/12/02 12:54:06;;;;;;;4.82;0.98;;;5.70;99.90;;;;;;4986180;28;20061;-76
2021/12/02 12:56:37;;;;;;;4.63;0.85;;;5.70;99.90;;;;;;4986243;28;20049;-77
2021/12/02 12:59:16;;;;;;;4.95;0.90;;;5.80;99.90;;;;;;4986045;28;20096;-76
2021/12/02 13:02:04;;;;;;;5.10;1.05;;;5.90;99.90;;;;;;4985029;28;20050;-75
2021/12/02 13:04:52;;;;;;;7.85;1.08;;;6.00;99.90;;;;;;4981839;28;20194;-75
2021/12/02 13:07:41;;;;;;;7.45;1.20;;;6.10;99.90;;;;;;4980528;28;20873;-76
2021/12/02 13:10:18;;;;;;;9.82;1.40;;;6.20;99.90;;;;;;4983900;28;20034;-75
2021/12/02 13:12:55;;;;;;;8.70;1.60;;;6.40;99.90;;;;;;4988938;28;20054;-76
2021/12/02 13:15:27;;;;;;;6.72;1.30;;;6.50;99.90;;;;;;4982981;28;20447;-76
2021/12/02 13:18:02;;;;;;;8.35;1.65;;;6.60;99.90;;;;;;4999188;28;20070;-75
2021/12/02 13:20:34;;;;;;;7.80;1.30;;;6.60;99.90;;;;;;5000057;28;20054;-76
2021/12/02 13:23:18;;;;;;;7.32;1.67;;;6.60;99.90;;;;;;4984772;28;20054;-76
2021/12/02 13:26:10;;;;;;;7.90;1.20;;;6.50;99.90;;;;;;4984346;28;20042;-76
2021/12/02 13:28:43;;;;;;;9.80;1.50;;;6.40;99.90;;;;;;4984306;28;20054;-76
2021/12/02 13:31:14;;;;;;;5.20;1.20;;;6.50;99.90;;;;;;4982975;28;20047;-75
2021/12/02 13:33:57;;;;;;;10.15;1.50;;;6.50;99.90;;;;;;4983890;28;20061;-76
2021/12/02 13:36:39;;;;;;;12.77;1.60;;;6.50;99.90;;;;;;4966609;28;20050;-76
2021/12/02 13:39:11;;;;;;;9.90;1.48;;;6.50;99.90;;;;;;4984210;28;20042;-76
2021/12/02 13:41:42;;;;;;;7.10;1.48;;;6.40;99.90;;;;;;4982868;28;20038;-76